sensor_id;sensor_type;location;lat;lon;timestamp;P1;durP1;ratioP1;P2;durP2;ratioP2
47413;SDS011;33163;0.000;0.000;2023-04-28T00:00:31;3.42;;;1.70;;
47413;SDS011;33163;0.000;0.000;2023-04-28T00:02:57;2.20;;;1.80;;
47413;SDS011;33163;0.000;0.000;2023-04-28T00:05:25;2.55;;;1.65;;
47413;SDS011;33163;0.000;0.000;2023-04-28T00:07:52;4.40;;;1.77;;
47413;SDS011;33163;0.000;0.000;2023-04-28T00:10:19;4.85;;;1.60;;
47413;SDS011;33163;0.000;0.000;2023-04-28T00:12:46;2.22;;;1.85;;
47413;SDS011;33163;0.000;0.000;2023-04-28T00:15:13;3.10;;;1.77;;
47413;SDS011;33163;0.000;0.000;2023-04-28T00:17:40;3.13;;;1.73;;
47413;SDS011;33163;0.000;0.000;2023-04-28T00:20:07;3.58;;;1.65;;
47413;SDS011;33163;0.000;0.000;2023-04-28T00:22:36;3.92;;;1.70;;
47413;SDS011;33163;0.000;0.000;2023-04-28T00:25:03;1.92;;;1.73;;
47413;SDS011;33163;0.000;0.000;2023-04-28T00:27:31;2.42;;;1.63;;
47413;SDS011;33163;0.000;0.000;2023-04-28T00:29:58;3.88;;;1.80;;
47413;SDS011;33163;0.000;0.000;2023-04-28T00:32:25;3.03;;;1.70;;
47413;SDS011;33163;0.000;0.000;2023-04-28T00:34:52;1.70;;;1.60;;
47413;SDS011;33163;0.000;0.000;2023-04-28T00:37:18;2.88;;;1.80;;
47413;SDS011;33163;0.000;0.000;2023-04-28T00:39:47;1.90;;;1.70;;
47413;SDS011;33163;0.000;0.000;2023-04-28T00:42:13;2.65;;;1.73;;
47413;SDS011;33163;0.000;0.000;2023-04-28T00:44:40;1.80;;;1.65;;
47413;SDS011;33163;0.000;0.000;2023-04-28T00:47:08;2.20;;;1.67;;
47413;SDS011;33163;0.000;0.000;2023-04-28T00:49:35;1.92;;;1.50;;
47413;SDS011;33163;0.000;0.000;2023-04-28T00:52:04;2.78;;;1.77;;
47413;SDS011;33163;0.000;0.000;2023-04-28T00:54:31;4.07;;;1.52;;
47413;SDS011;33163;0.000;0.000;2023-04-28T00:57:00;3.00;;;2.08;;
47413;SDS011;33163;0.000;0.000;2023-04-28T00:59:29;3.70;;;1.73;;
47413;SDS011;33163;0.000;0.000;2023-04-28T01:01:55;1.73;;;1.50;;
47413;SDS011;33163;0.000;0.000;2023-04-28T01:04:24;3.83;;;1.55;;
47413;SDS011;33163;0.000;0.000;2023-04-28T01:06:53;2.42;;;1.58;;
47413;SDS011;33163;0.000;0.000;2023-04-28T01:09:21;3.83;;;1.90;;
47413;SDS011;33163;0.000;0.000;2023-04-28T01:11:48;3.42;;;1.90;;
47413;SDS011;33163;0.000;0.000;2023-04-28T01:14:16;2.15;;;1.80;;
47413;SDS011;33163;0.000;0.000;2023-04-28T01:16:42;2.75;;;1.77;;
47413;SDS011;33163;0.000;0.000;2023-04-28T01:19:11;2.30;;;1.73;;
47413;SDS011;33163;0.000;0.000;2023-04-28T01:21:43;2.08;;;1.88;;
47413;SDS011;33163;0.000;0.000;2023-04-28T01:24:11;3.80;;;1.80;;
47413;SDS011;33163;0.000;0.000;2023-04-28T01:26:38;1.50;;;1.40;;
47413;SDS011;33163;0.000;0.000;2023-04-28T01:29:05;3.08;;;1.60;;
47413;SDS011;33163;0.000;0.000;2023-04-28T01:31:31;6.30;;;2.05;;
47413;SDS011;33163;0.000;0.000;2023-04-28T01:33:58;1.73;;;1.63;;
47413;SDS011;33163;0.000;0.000;2023-04-28T01:36:25;2.15;;;1.67;;
47413;SDS011;33163;0.000;0.000;2023-04-28T01:38:52;3.35;;;1.80;;
47413;SDS011;33163;0.000;0.000;2023-04-28T01:41:20;3.65;;;1.75;;
47413;SDS011;33163;0.000;0.000;2023-04-28T01:43:47;2.22;;;1.73;;
47413;SDS011;33163;0.000;0.000;2023-04-28T01:46:14;2.58;;;1.52;;
47413;SDS011;33163;0.000;0.000;2023-04-28T01:48:41;2.08;;;1.52;;
47413;SDS011;33163;0.000;0.000;2023-04-28T01:51:08;4.07;;;1.90;;
47413;SDS011;33163;0.000;0.000;2023-04-28T01:53:34;3.03;;;2.25;;
47413;SDS011;33163;0.000;0.000;2023-04-28T01:56:01;3.08;;;2.05;;
47413;SDS011;33163;0.000;0.000;2023-04-28T01:58:29;2.90;;;1.92;;
47413;SDS011;33163;0.000;0.000;2023-04-28T02:00:56;2.85;;;1.73;;
47413;SDS011;33163;0.000;0.000;2023-04-28T02:03:23;3.05;;;1.52;;
47413;SDS011;33163;0.000;0.000;2023-04-28T02:05:51;3.88;;;2.25;;
47413;SDS011;33163;0.000;0.000;2023-04-28T02:08:19;5.30;;;2.10;;
47413;SDS011;33163;0.000;0.000;2023-04-28T02:10:46;4.80;;;1.80;;
47413;SDS011;33163;0.000;0.000;2023-04-28T02:13:12;2.00;;;1.77;;
47413;SDS011;33163;0.000;0.000;2023-04-28T02:15:42;4.65;;;1.98;;
47413;SDS011;33163;0.000;0.000;2023-04-28T02:18:09;6.15;;;2.65;;
47413;SDS011;33163;0.000;0.000;2023-04-28T02:20:36;4.35;;;2.28;;
47413;SDS011;33163;0.000;0.000;2023-04-28T02:23:02;2.15;;;1.85;;
47413;SDS011;33163;0.000;0.000;2023-04-28T02:25:29;3.08;;;1.80;;
47413;SDS011;33163;0.000;0.000;2023-04-28T02:27:56;3.95;;;2.30;;
47413;SDS011;33163;0.000;0.000;2023-04-28T02:30:23;2.85;;;1.80;;
47413;SDS011;33163;0.000;0.000;2023-04-28T02:32:51;3.83;;;1.92;;
47413;SDS011;33163;0.000;0.000;2023-04-28T02:35:18;3.92;;;1.73;;
47413;SDS011;33163;0.000;0.000;2023-04-28T02:37:54;3.28;;;2.00;;
47413;SDS011;33163;0.000;0.000;2023-04-28T02:40:20;2.47;;;1.60;;
47413;SDS011;33163;0.000;0.000;2023-04-28T02:42:47;2.65;;;2.15;;
47413;SDS011;33163;0.000;0.000;2023-04-28T02:45:14;2.63;;;1.60;;
47413;SDS011;33163;0.000;0.000;2023-04-28T02:47:41;1.83;;;1.52;;
47413;SDS011;33163;0.000;0.000;2023-04-28T02:50:09;3.40;;;1.98;;
47413;SDS011;33163;0.000;0.000;2023-04-28T02:52:36;4.93;;;1.80;;
47413;SDS011;33163;0.000;0.000;2023-04-28T02:55:03;3.90;;;1.95;;
47413;SDS011;33163;0.000;0.000;2023-04-28T02:57:30;6.05;;;1.88;;
47413;SDS011;33163;0.000;0.000;2023-04-28T02:59:57;2.08;;;1.88;;
47413;SDS011;33163;0.000;0.000;2023-04-28T03:02:24;2.50;;;1.65;;
47413;SDS011;33163;0.000;0.000;2023-04-28T03:04:50;3.75;;;2.03;;
47413;SDS011;33163;0.000;0.000;2023-04-28T03:07:18;2.65;;;2.00;;
47413;SDS011;33163;0.000;0.000;2023-04-28T03:09:45;2.20;;;2.00;;
47413;SDS011;33163;0.000;0.000;2023-04-28T03:12:12;3.25;;;1.92;;
47413;SDS011;33163;0.000;0.000;2023-04-28T03:14:39;5.13;;;2.58;;
47413;SDS011;33163;0.000;0.000;2023-04-28T03:17:06;5.10;;;1.77;;
47413;SDS011;33163;0.000;0.000;2023-04-28T03:19:33;2.78;;;2.08;;
47413;SDS011;33163;0.000;0.000;2023-04-28T03:22:00;3.30;;;1.90;;
47413;SDS011;33163;0.000;0.000;2023-04-28T03:24:28;2.72;;;1.95;;
47413;SDS011;33163;0.000;0.000;2023-04-28T03:26:55;4.50;;;2.00;;
47413;SDS011;33163;0.000;0.000;2023-04-28T03:29:21;2.22;;;1.98;;
47413;SDS011;33163;0.000;0.000;2023-04-28T03:31:49;5.65;;;1.92;;
47413;SDS011;33163;0.000;0.000;2023-04-28T03:34:16;2.58;;;1.83;;
47413;SDS011;33163;0.000;0.000;2023-04-28T03:36:43;5.50;;;2.42;;
47413;SDS011;33163;0.000;0.000;2023-04-28T03:39:10;2.33;;;1.88;;
47413;SDS011;33163;0.000;0.000;2023-04-28T03:41:38;1.92;;;1.58;;
47413;SDS011;33163;0.000;0.000;2023-04-28T03:44:05;3.63;;;1.98;;
47413;SDS011;33163;0.000;0.000;2023-04-28T03:46:32;3.40;;;2.40;;
47413;SDS011;33163;0.000;0.000;2023-04-28T03:48:59;1.80;;;1.60;;
47413;SDS011;33163;0.000;0.000;2023-04-28T03:51:26;4.25;;;2.15;;
47413;SDS011;33163;0.000;0.000;2023-04-28T03:53:53;7.63;;;1.70;;
47413;SDS011;33163;0.000;0.000;2023-04-28T03:56:20;2.80;;;1.80;;
47413;SDS011;33163;0.000;0.000;2023-04-28T03:58:48;2.15;;;1.95;;
47413;SDS011;33163;0.000;0.000;2023-04-28T04:01:15;3.30;;;2.20;;
47413;SDS011;33163;0.000;0.000;2023-04-28T04:03:41;3.47;;;1.90;;
47413;SDS011;33163;0.000;0.000;2023-04-28T04:06:08;2.95;;;1.88;;
47413;SDS011;33163;0.000;0.000;2023-04-28T04:08:35;4.03;;;2.20;;
47413;SDS011;33163;0.000;0.000;2023-04-28T04:11:02;2.35;;;1.95;;
47413;SDS011;33163;0.000;0.000;2023-04-28T04:13:29;3.17;;;1.73;;
47413;SDS011;33163;0.000;0.000;2023-04-28T04:15:57;2.65;;;2.28;;
47413;SDS011;33163;0.000;0.000;2023-04-28T04:18:24;5.32;;;2.15;;
47413;SDS011;33163;0.000;0.000;2023-04-28T04:20:51;2.67;;;1.92;;
47413;SDS011;33163;0.000;0.000;2023-04-28T04:23:19;5.65;;;2.45;;
47413;SDS011;33163;0.000;0.000;2023-04-28T04:25:46;3.58;;;2.13;;
47413;SDS011;33163;0.000;0.000;2023-04-28T04:28:13;5.07;;;2.17;;
47413;SDS011;33163;0.000;0.000;2023-04-28T04:30:40;2.80;;;2.03;;
47413;SDS011;33163;0.000;0.000;2023-04-28T04:33:08;3.70;;;2.05;;
47413;SDS011;33163;0.000;0.000;2023-04-28T04:35:35;4.40;;;2.42;;
47413;SDS011;33163;0.000;0.000;2023-04-28T04:38:02;2.97;;;2.55;;
47413;SDS011;33163;0.000;0.000;2023-04-28T04:40:29;2.40;;;2.20;;
47413;SDS011;33163;0.000;0.000;2023-04-28T04:42:57;6.40;;;2.00;;
47413;SDS011;33163;0.000;0.000;2023-04-28T04:45:23;5.30;;;1.88;;
47413;SDS011;33163;0.000;0.000;2023-04-28T04:47:50;3.97;;;2.63;;
47413;SDS011;33163;0.000;0.000;2023-04-28T04:50:19;2.90;;;1.98;;
47413;SDS011;33163;0.000;0.000;2023-04-28T04:52:46;3.22;;;2.15;;
47413;SDS011;33163;0.000;0.000;2023-04-28T04:55:12;5.40;;;2.25;;
47413;SDS011;33163;0.000;0.000;2023-04-28T04:57:39;2.72;;;2.03;;
47413;SDS011;33163;0.000;0.000;2023-04-28T05:00:06;5.00;;;2.60;;
47413;SDS011;33163;0.000;0.000;2023-04-28T05:02:34;5.25;;;2.20;;
47413;SDS011;33163;0.000;0.000;2023-04-28T05:05:00;4.72;;;2.15;;
47413;SDS011;33163;0.000;0.000;2023-04-28T05:07:29;3.13;;;2.13;;
47413;SDS011;33163;0.000;0.000;2023-04-28T05:09:55;3.25;;;2.38;;
47413;SDS011;33163;0.000;0.000;2023-04-28T05:12:22;2.58;;;1.92;;
47413;SDS011;33163;0.000;0.000;2023-04-28T05:14:49;2.83;;;2.03;;
47413;SDS011;33163;0.000;0.000;2023-04-28T05:17:15;3.90;;;2.38;;
47413;SDS011;33163;0.000;0.000;2023-04-28T05:19:42;6.82;;;2.00;;
47413;SDS011;33163;0.000;0.000;2023-04-28T05:22:09;3.85;;;2.00;;
47413;SDS011;33163;0.000;0.000;2023-04-28T05:24:37;3.58;;;2.22;;
47413;SDS011;33163;0.000;0.000;2023-04-28T05:27:04;3.03;;;2.10;;
47413;SDS011;33163;0.000;0.000;2023-04-28T05:29:31;3.60;;;2.70;;
47413;SDS011;33163;0.000;0.000;2023-04-28T05:31:58;3.35;;;2.25;;
47413;SDS011;33163;0.000;0.000;2023-04-28T05:34:24;2.97;;;2.35;;
47413;SDS011;33163;0.000;0.000;2023-04-28T05:36:51;4.80;;;2.20;;
47413;SDS011;33163;0.000;0.000;2023-04-28T05:39:18;4.40;;;2.45;;
47413;SDS011;33163;0.000;0.000;2023-04-28T05:41:46;4.50;;;2.28;;
47413;SDS011;33163;0.000;0.000;2023-04-28T05:44:13;5.63;;;2.17;;
47413;SDS011;33163;0.000;0.000;2023-04-28T05:46:40;3.15;;;2.22;;
47413;SDS011;33163;0.000;0.000;2023-04-28T05:49:07;3.50;;;2.47;;
47413;SDS011;33163;0.000;0.000;2023-04-28T05:51:35;4.63;;;2.42;;
47413;SDS011;33163;0.000;0.000;2023-04-28T05:54:02;3.65;;;2.20;;
47413;SDS011;33163;0.000;0.000;2023-04-28T05:56:29;3.53;;;2.33;;
47413;SDS011;33163;0.000;0.000;2023-04-28T05:58:57;3.00;;;2.00;;
47413;SDS011;33163;0.000;0.000;2023-04-28T06:01:28;4.40;;;1.98;;
47413;SDS011;33163;0.000;0.000;2023-04-28T06:03:54;4.60;;;2.25;;
47413;SDS011;33163;0.000;0.000;2023-04-28T06:06:22;9.77;;;2.33;;
47413;SDS011;33163;0.000;0.000;2023-04-28T06:08:49;3.88;;;2.10;;
47413;SDS011;33163;0.000;0.000;2023-04-28T06:11:16;3.05;;;2.20;;
47413;SDS011;33163;0.000;0.000;2023-04-28T06:13:46;4.57;;;2.42;;
47413;SDS011;33163;0.000;0.000;2023-04-28T06:16:14;2.88;;;2.60;;
47413;SDS011;33163;0.000;0.000;2023-04-28T06:18:41;4.13;;;2.30;;
47413;SDS011;33163;0.000;0.000;2023-04-28T06:21:08;3.67;;;2.63;;
47413;SDS011;33163;0.000;0.000;2023-04-28T06:23:35;3.90;;;2.13;;
47413;SDS011;33163;0.000;0.000;2023-04-28T06:26:02;4.85;;;2.90;;
47413;SDS011;33163;0.000;0.000;2023-04-28T06:28:29;4.63;;;2.70;;
47413;SDS011;33163;0.000;0.000;2023-04-28T06:30:56;2.45;;;2.20;;
47413;SDS011;33163;0.000;0.000;2023-04-28T06:33:25;5.80;;;2.42;;
47413;SDS011;33163;0.000;0.000;2023-04-28T06:35:52;3.10;;;2.42;;
47413;SDS011;33163;0.000;0.000;2023-04-28T06:38:19;6.00;;;3.10;;
47413;SDS011;33163;0.000;0.000;2023-04-28T06:40:45;3.88;;;2.70;;
47413;SDS011;33163;0.000;0.000;2023-04-28T06:43:12;5.32;;;2.88;;
47413;SDS011;33163;0.000;0.000;2023-04-28T06:45:39;3.90;;;2.78;;
47413;SDS011;33163;0.000;0.000;2023-04-28T06:48:05;3.63;;;2.22;;
47413;SDS011;33163;0.000;0.000;2023-04-28T06:50:35;3.95;;;2.47;;
47413;SDS011;33163;0.000;0.000;2023-04-28T06:53:02;5.63;;;2.83;;
47413;SDS011;33163;0.000;0.000;2023-04-28T06:55:29;4.53;;;2.70;;
47413;SDS011;33163;0.000;0.000;2023-04-28T06:57:56;2.97;;;2.20;;
47413;SDS011;33163;0.000;0.000;2023-04-28T07:00:22;4.80;;;2.72;;
47413;SDS011;33163;0.000;0.000;2023-04-28T07:02:50;3.78;;;2.30;;
47413;SDS011;33163;0.000;0.000;2023-04-28T07:05:16;3.75;;;2.50;;
47413;SDS011;33163;0.000;0.000;2023-04-28T07:07:45;4.85;;;3.10;;
47413;SDS011;33163;0.000;0.000;2023-04-28T07:10:13;4.53;;;2.55;;
47413;SDS011;33163;0.000;0.000;2023-04-28T07:12:40;3.22;;;2.40;;
47413;SDS011;33163;0.000;0.000;2023-04-28T07:15:07;4.43;;;2.70;;
47413;SDS011;33163;0.000;0.000;2023-04-28T07:17:34;6.07;;;2.90;;
47413;SDS011;33163;0.000;0.000;2023-04-28T07:20:01;3.65;;;3.03;;
47413;SDS011;33163;0.000;0.000;2023-04-28T07:22:28;3.35;;;2.58;;
47413;SDS011;33163;0.000;0.000;2023-04-28T07:24:56;5.45;;;2.38;;
47413;SDS011;33163;0.000;0.000;2023-04-28T07:27:23;3.38;;;2.67;;
47413;SDS011;33163;0.000;0.000;2023-04-28T07:29:50;6.45;;;2.92;;
47413;SDS011;33163;0.000;0.000;2023-04-28T07:32:16;3.75;;;2.95;;
47413;SDS011;33163;0.000;0.000;2023-04-28T07:34:43;3.97;;;2.70;;
47413;SDS011;33163;0.000;0.000;2023-04-28T07:37:10;4.32;;;2.88;;
47413;SDS011;33163;0.000;0.000;2023-04-28T07:39:37;4.50;;;2.72;;
47413;SDS011;33163;0.000;0.000;2023-04-28T07:42:07;3.63;;;2.80;;
47413;SDS011;33163;0.000;0.000;2023-04-28T07:44:33;3.90;;;2.47;;
47413;SDS011;33163;0.000;0.000;2023-04-28T07:47:00;5.47;;;2.70;;
47413;SDS011;33163;0.000;0.000;2023-04-28T07:49:28;4.18;;;2.65;;
47413;SDS011;33163;0.000;0.000;2023-04-28T07:51:55;3.53;;;2.47;;
47413;SDS011;33163;0.000;0.000;2023-04-28T07:54:22;6.25;;;3.22;;
47413;SDS011;33163;0.000;0.000;2023-04-28T07:56:50;4.03;;;2.40;;
47413;SDS011;33163;0.000;0.000;2023-04-28T07:59:18;2.70;;;2.47;;
47413;SDS011;33163;0.000;0.000;2023-04-28T08:01:45;3.63;;;2.60;;
47413;SDS011;33163;0.000;0.000;2023-04-28T08:04:12;6.78;;;2.90;;
47413;SDS011;33163;0.000;0.000;2023-04-28T08:06:39;3.17;;;2.72;;
47413;SDS011;33163;0.000;0.000;2023-04-28T08:09:05;3.33;;;2.67;;
47413;SDS011;33163;0.000;0.000;2023-04-28T08:11:32;6.20;;;3.33;;
47413;SDS011;33163;0.000;0.000;2023-04-28T08:14:00;3.55;;;2.72;;
47413;SDS011;33163;0.000;0.000;2023-04-28T08:16:28;6.03;;;3.20;;
47413;SDS011;33163;0.000;0.000;2023-04-28T08:18:57;5.05;;;2.92;;
47413;SDS011;33163;0.000;0.000;2023-04-28T08:21:24;5.97;;;2.80;;
47413;SDS011;33163;0.000;0.000;2023-04-28T08:23:51;4.25;;;2.97;;
47413;SDS011;33163;0.000;0.000;2023-04-28T08:26:17;5.18;;;2.42;;
47413;SDS011;33163;0.000;0.000;2023-04-28T08:28:44;4.05;;;2.75;;
47413;SDS011;33163;0.000;0.000;2023-04-28T08:31:11;5.75;;;2.72;;
47413;SDS011;33163;0.000;0.000;2023-04-28T08:33:39;3.13;;;2.72;;
47413;SDS011;33163;0.000;0.000;2023-04-28T08:36:08;3.40;;;2.72;;
47413;SDS011;33163;0.000;0.000;2023-04-28T08:38:38;5.68;;;2.92;;
47413;SDS011;33163;0.000;0.000;2023-04-28T08:41:05;3.65;;;2.42;;
47413;SDS011;33163;0.000;0.000;2023-04-28T08:43:32;4.28;;;2.58;;
47413;SDS011;33163;0.000;0.000;2023-04-28T08:46:00;4.00;;;2.75;;
47413;SDS011;33163;0.000;0.000;2023-04-28T08:48:31;4.15;;;3.00;;
47413;SDS011;33163;0.000;0.000;2023-04-28T08:51:06;3.17;;;2.70;;
47413;SDS011;33163;0.000;0.000;2023-04-28T08:53:35;5.28;;;3.00;;
47413;SDS011;33163;0.000;0.000;2023-04-28T08:56:04;3.83;;;2.78;;
47413;SDS011;33163;0.000;0.000;2023-04-28T08:58:32;3.28;;;2.97;;
47413;SDS011;33163;0.000;0.000;2023-04-28T09:01:01;3.80;;;3.10;;
47413;SDS011;33163;0.000;0.000;2023-04-28T09:03:28;4.93;;;3.03;;
47413;SDS011;33163;0.000;0.000;2023-04-28T09:05:55;3.75;;;2.67;;
47413;SDS011;33163;0.000;0.000;2023-04-28T09:08:24;3.90;;;2.97;;
47413;SDS011;33163;0.000;0.000;2023-04-28T09:11:03;3.88;;;3.45;;
47413;SDS011;33163;0.000;0.000;2023-04-28T09:13:32;4.07;;;3.05;;
47413;SDS011;33163;0.000;0.000;2023-04-28T09:15:59;5.93;;;3.08;;
47413;SDS011;33163;0.000;0.000;2023-04-28T09:18:27;5.57;;;3.08;;
47413;SDS011;33163;0.000;0.000;2023-04-28T09:21:01;6.95;;;3.17;;
47413;SDS011;33163;0.000;0.000;2023-04-28T09:23:30;4.13;;;3.00;;
47413;SDS011;33163;0.000;0.000;2023-04-28T09:25:59;3.50;;;3.08;;
47413;SDS011;33163;0.000;0.000;2023-04-28T09:28:26;5.47;;;3.03;;
47413;SDS011;33163;0.000;0.000;2023-04-28T09:30:53;4.65;;;2.88;;
47413;SDS011;33163;0.000;0.000;2023-04-28T09:33:21;4.95;;;3.35;;
47413;SDS011;33163;0.000;0.000;2023-04-28T09:35:47;4.05;;;3.25;;
47413;SDS011;33163;0.000;0.000;2023-04-28T09:38:14;7.18;;;3.20;;
47413;SDS011;33163;0.000;0.000;2023-04-28T09:40:49;4.78;;;3.40;;
47413;SDS011;33163;0.000;0.000;2023-04-28T09:43:27;4.45;;;3.05;;
47413;SDS011;33163;0.000;0.000;2023-04-28T09:45:55;4.65;;;2.42;;
47413;SDS011;33163;0.000;0.000;2023-04-28T09:48:27;3.10;;;2.78;;
47413;SDS011;33163;0.000;0.000;2023-04-28T09:50:57;4.40;;;2.55;;
47413;SDS011;33163;0.000;0.000;2023-04-28T09:53:25;3.53;;;2.40;;
47413;SDS011;33163;0.000;0.000;2023-04-28T09:55:55;4.32;;;2.70;;
47413;SDS011;33163;0.000;0.000;2023-04-28T09:58:25;3.63;;;2.40;;
47413;SDS011;33163;0.000;0.000;2023-04-28T10:00:53;3.40;;;2.78;;
47413;SDS011;33163;0.000;0.000;2023-04-28T10:03:21;3.00;;;2.25;;
47413;SDS011;33163;0.000;0.000;2023-04-28T10:05:49;3.38;;;2.00;;
47413;SDS011;33163;0.000;0.000;2023-04-28T10:08:17;2.83;;;2.20;;
47413;SDS011;33163;0.000;0.000;2023-04-28T10:10:45;2.38;;;1.85;;
47413;SDS011;33163;0.000;0.000;2023-04-28T10:13:15;2.40;;;2.00;;
47413;SDS011;33163;0.000;0.000;2023-04-28T10:15:43;3.00;;;2.30;;
47413;SDS011;33163;0.000;0.000;2023-04-28T10:18:10;2.95;;;2.38;;
47413;SDS011;33163;0.000;0.000;2023-04-28T10:20:38;2.95;;;2.00;;
47413;SDS011;33163;0.000;0.000;2023-04-28T10:23:15;2.40;;;1.90;;
47413;SDS011;33163;0.000;0.000;2023-04-28T10:25:53;2.70;;;2.28;;
47413;SDS011;33163;0.000;0.000;2023-04-28T10:28:25;2.38;;;2.17;;
47413;SDS011;33163;0.000;0.000;2023-04-28T10:31:07;2.67;;;1.83;;
47413;SDS011;33163;0.000;0.000;2023-04-28T10:33:35;5.00;;;2.17;;
47413;SDS011;33163;0.000;0.000;2023-04-28T10:36:03;6.70;;;2.30;;
47413;SDS011;33163;0.000;0.000;2023-04-28T10:38:31;2.85;;;2.33;;
47413;SDS011;33163;0.000;0.000;2023-04-28T10:40:58;3.08;;;2.00;;
47413;SDS011;33163;0.000;0.000;2023-04-28T10:43:35;3.40;;;2.30;;
47413;SDS011;33163;0.000;0.000;2023-04-28T10:46:04;3.90;;;2.30;;
47413;SDS011;33163;0.000;0.000;2023-04-28T10:51:32;2.30;;;1.90;;
47413;SDS011;33163;0.000;0.000;2023-04-28T10:54:09;2.83;;;2.15;;
47413;SDS011;33163;0.000;0.000;2023-04-28T10:56:39;3.10;;;2.00;;
47413;SDS011;33163;0.000;0.000;2023-04-28T10:59:26;3.05;;;2.08;;
47413;SDS011;33163;0.000;0.000;2023-04-28T11:01:54;2.88;;;2.00;;
47413;SDS011;33163;0.000;0.000;2023-04-28T11:04:20;3.00;;;2.10;;
47413;SDS011;33163;0.000;0.000;2023-04-28T11:07:08;2.13;;;1.92;;
47413;SDS011;33163;0.000;0.000;2023-04-28T11:09:46;2.95;;;1.90;;
47413;SDS011;33163;0.000;0.000;2023-04-28T11:12:14;2.95;;;1.60;;
47413;SDS011;33163;0.000;0.000;2023-04-28T11:14:42;3.53;;;1.83;;
47413;SDS011;33163;0.000;0.000;2023-04-28T11:17:10;3.35;;;1.65;;
47413;SDS011;33163;0.000;0.000;2023-04-28T11:19:40;2.00;;;1.50;;
47413;SDS011;33163;0.000;0.000;2023-04-28T11:22:12;3.00;;;1.52;;
47413;SDS011;33163;0.000;0.000;2023-04-28T11:24:40;2.63;;;1.67;;
47413;SDS011;33163;0.000;0.000;2023-04-28T11:27:22;3.10;;;1.50;;
47413;SDS011;33163;0.000;0.000;2023-04-28T11:29:50;3.42;;;1.60;;
47413;SDS011;33163;0.000;0.000;2023-04-28T11:32:19;2.60;;;1.30;;
47413;SDS011;33163;0.000;0.000;2023-04-28T11:34:51;2.28;;;1.70;;
47413;SDS011;33163;0.000;0.000;2023-04-28T11:37:18;3.92;;;1.80;;
47413;SDS011;33163;0.000;0.000;2023-04-28T11:39:46;2.72;;;1.30;;
47413;SDS011;33163;0.000;0.000;2023-04-28T11:42:13;4.63;;;1.80;;
47413;SDS011;33163;0.000;0.000;2023-04-28T11:44:41;2.30;;;1.58;;
47413;SDS011;33163;0.000;0.000;2023-04-28T11:47:15;2.10;;;1.27;;
47413;SDS011;33163;0.000;0.000;2023-04-28T11:49:53;1.70;;;1.23;;
47413;SDS011;33163;0.000;0.000;2023-04-28T11:52:19;2.35;;;1.33;;
47413;SDS011;33163;0.000;0.000;2023-04-28T11:54:51;1.50;;;1.40;;
47413;SDS011;33163;0.000;0.000;2023-04-28T11:57:20;1.42;;;1.33;;
47413;SDS011;33163;0.000;0.000;2023-04-28T11:59:47;2.53;;;1.45;;
47413;SDS011;33163;0.000;0.000;2023-04-28T12:02:22;2.03;;;1.35;;
47413;SDS011;33163;0.000;0.000;2023-04-28T12:04:51;2.15;;;1.40;;
47413;SDS011;33163;0.000;0.000;2023-04-28T12:07:18;2.13;;;1.27;;
47413;SDS011;33163;0.000;0.000;2023-04-28T12:09:45;2.40;;;1.38;;
47413;SDS011;33163;0.000;0.000;2023-04-28T12:12:14;1.52;;;1.33;;
47413;SDS011;33163;0.000;0.000;2023-04-28T12:14:55;2.50;;;1.27;;
47413;SDS011;33163;0.000;0.000;2023-04-28T12:17:24;1.40;;;1.30;;
47413;SDS011;33163;0.000;0.000;2023-04-28T12:19:51;1.00;;;0.98;;
47413;SDS011;33163;0.000;0.000;2023-04-28T12:22:18;3.97;;;1.38;;
47413;SDS011;33163;0.000;0.000;2023-04-28T12:24:44;1.35;;;0.95;;
47413;SDS011;33163;0.000;0.000;2023-04-28T12:27:17;1.40;;;1.20;;
47413;SDS011;33163;0.000;0.000;2023-04-28T12:29:46;1.40;;;1.30;;
47413;SDS011;33163;0.000;0.000;2023-04-28T12:32:13;1.55;;;1.40;;
47413;SDS011;33163;0.000;0.000;2023-04-28T12:34:41;2.35;;;1.20;;
47413;SDS011;33163;0.000;0.000;2023-04-28T12:37:10;1.80;;;1.30;;
47413;SDS011;33163;0.000;0.000;2023-04-28T12:39:38;1.23;;;1.00;;
47413;SDS011;33163;0.000;0.000;2023-04-28T12:42:05;1.42;;;1.30;;
47413;SDS011;33163;0.000;0.000;2023-04-28T12:44:32;1.55;;;1.45;;
47413;SDS011;33163;0.000;0.000;2023-04-28T12:47:01;2.00;;;1.30;;
47413;SDS011;33163;0.000;0.000;2023-04-28T12:49:29;2.47;;;1.48;;
47413;SDS011;33163;0.000;0.000;2023-04-28T12:51:57;1.98;;;1.50;;
47413;SDS011;33163;0.000;0.000;2023-04-28T12:54:24;1.33;;;1.20;;
47413;SDS011;33163;0.000;0.000;2023-04-28T12:56:50;4.68;;;1.60;;
47413;SDS011;33163;0.000;0.000;2023-04-28T12:59:18;3.38;;;1.40;;
47413;SDS011;33163;0.000;0.000;2023-04-28T13:01:45;2.58;;;1.50;;
47413;SDS011;33163;0.000;0.000;2023-04-28T13:04:12;1.33;;;1.20;;
47413;SDS011;33163;0.000;0.000;2023-04-28T13:06:38;1.60;;;1.30;;
47413;SDS011;33163;0.000;0.000;2023-04-28T13:09:09;1.92;;;1.40;;
47413;SDS011;33163;0.000;0.000;2023-04-28T13:11:36;1.88;;;1.42;;
47413;SDS011;33163;0.000;0.000;2023-04-28T13:14:03;3.70;;;1.13;;
47413;SDS011;33163;0.000;0.000;2023-04-28T13:16:30;1.60;;;1.50;;
47413;SDS011;33163;0.000;0.000;2023-04-28T13:18:58;3.33;;;1.50;;
47413;SDS011;33163;0.000;0.000;2023-04-28T13:21:25;3.25;;;1.60;;
47413;SDS011;33163;0.000;0.000;2023-04-28T13:23:52;2.20;;;1.42;;
47413;SDS011;33163;0.000;0.000;2023-04-28T13:26:21;2.08;;;1.45;;
47413;SDS011;33163;0.000;0.000;2023-04-28T13:28:49;1.95;;;1.40;;
47413;SDS011;33163;0.000;0.000;2023-04-28T13:31:16;2.75;;;1.45;;
47413;SDS011;33163;0.000;0.000;2023-04-28T13:33:43;2.13;;;1.48;;
47413;SDS011;33163;0.000;0.000;2023-04-28T13:36:10;1.20;;;1.10;;
47413;SDS011;33163;0.000;0.000;2023-04-28T13:38:37;2.38;;;1.40;;
47413;SDS011;33163;0.000;0.000;2023-04-28T13:41:04;2.58;;;1.20;;
47413;SDS011;33163;0.000;0.000;2023-04-28T13:43:32;1.70;;;1.50;;
47413;SDS011;33163;0.000;0.000;2023-04-28T13:46:00;2.70;;;1.60;;
47413;SDS011;33163;0.000;0.000;2023-04-28T13:48:31;2.90;;;1.42;;
47413;SDS011;33163;0.000;0.000;2023-04-28T13:50:58;1.30;;;1.20;;
47413;SDS011;33163;0.000;0.000;2023-04-28T13:53:24;2.33;;;1.40;;
47413;SDS011;33163;0.000;0.000;2023-04-28T13:55:51;3.15;;;1.58;;
47413;SDS011;33163;0.000;0.000;2023-04-28T13:58:21;1.38;;;1.27;;
47413;SDS011;33163;0.000;0.000;2023-04-28T14:00:49;1.65;;;1.50;;
47413;SDS011;33163;0.000;0.000;2023-04-28T14:03:16;3.38;;;1.58;;
47413;SDS011;33163;0.000;0.000;2023-04-28T14:05:43;2.00;;;1.30;;
47413;SDS011;33163;0.000;0.000;2023-04-28T14:08:10;1.35;;;0.95;;
47413;SDS011;33163;0.000;0.000;2023-04-28T14:10:37;1.67;;;1.23;;
47413;SDS011;33163;0.000;0.000;2023-04-28T14:13:04;2.85;;;1.40;;
47413;SDS011;33163;0.000;0.000;2023-04-28T14:15:31;2.85;;;1.52;;
47413;SDS011;33163;0.000;0.000;2023-04-28T14:17:59;2.60;;;1.30;;
47413;SDS011;33163;0.000;0.000;2023-04-28T14:20:26;2.30;;;1.40;;
47413;SDS011;33163;0.000;0.000;2023-04-28T14:22:53;3.90;;;1.90;;
47413;SDS011;33163;0.000;0.000;2023-04-28T14:25:20;2.40;;;1.42;;
47413;SDS011;33163;0.000;0.000;2023-04-28T14:27:47;2.70;;;1.55;;
47413;SDS011;33163;0.000;0.000;2023-04-28T14:30:14;2.88;;;1.42;;
47413;SDS011;33163;0.000;0.000;2023-04-28T14:32:41;3.25;;;1.52;;
47413;SDS011;33163;0.000;0.000;2023-04-28T14:35:09;4.63;;;1.42;;
47413;SDS011;33163;0.000;0.000;2023-04-28T14:37:38;2.05;;;1.25;;
47413;SDS011;33163;0.000;0.000;2023-04-28T14:40:05;2.35;;;1.10;;
47413;SDS011;33163;0.000;0.000;2023-04-28T14:42:33;4.72;;;1.48;;
47413;SDS011;33163;0.000;0.000;2023-04-28T14:45:01;2.40;;;1.40;;
47413;SDS011;33163;0.000;0.000;2023-04-28T14:47:28;3.75;;;1.27;;
47413;SDS011;33163;0.000;0.000;2023-04-28T14:49:55;2.38;;;1.30;;
47413;SDS011;33163;0.000;0.000;2023-04-28T14:52:24;3.10;;;1.38;;
47413;SDS011;33163;0.000;0.000;2023-04-28T14:54:53;3.28;;;1.75;;
47413;SDS011;33163;0.000;0.000;2023-04-28T14:57:21;3.78;;;1.40;;
47413;SDS011;33163;0.000;0.000;2023-04-28T14:59:49;2.05;;;1.10;;
47413;SDS011;33163;0.000;0.000;2023-04-28T15:02:16;2.38;;;1.33;;
47413;SDS011;33163;0.000;0.000;2023-04-28T15:04:44;2.97;;;1.30;;
47413;SDS011;33163;0.000;0.000;2023-04-28T15:07:11;2.67;;;1.30;;